Seattle, Washington
Current Conditions -  °F | °C
As of 11:53 PM on Monday 26 Jan 2015 (Local Time) from KBFI Reporting Station
Scattered Clouds Scattered Clouds  
Wind Chill: 10°   Ceiling: Unl
Heat Index: 10°   Visibility: 10mi
Dew Point:   Wind: 5mph
Humidity: 83%   Direction: 130°SE
Pressure: 29.99"   Gusts: NA
Location:  47.6°N, 122.32°W
Report Text: KBFI 270753Z 13004KT 10SM SCT020 10/07 A2999 RMK AO2 SLP155 T01000072 401830072
Loading
Personal Weather Stations






























Interactive Weather Map New forecast layout! Learn more

10-Day Weather Forecast

Advertisements
Track Severe Weather on mobile